Palacios, TX (77465)

12:18 PM CST on December 08, 2016 (GMT -0600)
Palacios Pavilion | | Change Station
Active Advisory: Wind Advisory

Elev 0 ft 28.70 °N, 96.22 °W | Updated 21 seconds ago

Overcast
Overcast
49.0 °F
Feels Like 47 °F
N
5.6
Wind Variable Wind from ENE
Gusts 22.0 mph

Today
High -- | Low -- °F
--% Chance of Precip.
Yesterday
High -- | Low -- °F
Precip. -- in
Pressure 30.35 in
Visibility 10.0 miles
Clouds Overcast 1500 ft
Windchill 47 °F
Dew Point 45 °F
Humidity 86%
Rainfall 0.00 in
Snow Depth Not available.
7:05 AM 5:28 PM
Waxing Gibbous, 65% visible
SPECI KPSX 081809Z AUTO 01020G29KT 10SM OVC015 09/06 A3035 RMK AO2 PK WND 01031/1757 T00890061
Pressure 30.35 in
Visibility 10.0 miles
Clouds Overcast 1500 ft
Windchill 47 °F
Dew Point 45 °F
Humidity 86%
Rainfall 0.00 in
Snow Depth Not available.
7:05 AM 5:28 PM
Waxing Gibbous, 65% visible
SPECI KPSX 081809Z AUTO 01020G29KT 10SM OVC015 09/06 A3035 RMK AO2 PK WND 01031/1757 T00890061

10-Day Weather Forecast

Almanac

Astronomy

Dec. 08, 2016 Rise Set
Actual Time
Civil Twilight
Nautical Twilight
Astronomical Twilight
Moon
Length of Visible Light
Length of Day
Tomorrow will be .
, % of the Moon is Illuminated

Today's Extremes

State Highs State Lows

Community

WunderPhotos

Upload Photos

1,956,277 photos uploaded!

WunderBlog® & News

Nearby

Air Quality

  Air Quality AQ Index Pollutant
Not available.

Snow Depth

Station Depth Elevation

Earthquake Activity

City Distance Mag. Time & Date
Minimum magnitude displayed is 2.5.

Coastal Water Temperatures

Place Temperature

Stations

Nearby Weather Stations

Station Location Temp. Windchill Dew Point Humidity Wind Precip. Elev Updated Type
                   

Watches & Warnings

Wind Advisory
Issued: 3:47 AM CST Dec. 8, 2016 – National Weather Service

... Wind Advisory remains in effect until 6 PM CST this evening...

* event... north winds 20 to 30 mph with gusts of 35 mph

* timing... 6 am CST to 6 PM CST today

* impact... windy conditions could impact travel on area highways
for high profile vehicles. Any outdoor tents... canopies or
bounce houses will need to be secured.

Precautionary/preparedness actions...

Drivers of vans... campers... trailers... and other high-profile
vehicles should be alert to the danger of these winds...
especially when driving along east to west oriented roads.